Alford, Florida
Current Conditions -  °F | °C
As of 10:53 PM on Saturday 25 Oct 2014 (Local Time) from KMAI Reporting Station
Light Rain Light Rain  
Wind Chill: 14°   Ceiling: Unl
Heat Index: 14°   Visibility: 10mi
Dew Point: 13°   Wind: 0mph
Humidity: 93%   Direction: NA
Pressure: 30.04"   Gusts: NA
Location:  30.69°N, 85.39°W
Report Text: KMAI 260353Z AUTO 00000KT 10SM -RA CLR 14/13 A3004 RMK AO2 SLP172 P0000 T01390128 $
Loading
Personal Weather Stations






























Interactive Weather Map
Tropical Storm Tracking
New forecast layout! Learn more

10-Day Weather Forecast

Advertisements
Track Severe Weather on mobile